Time;durP1;ratioP1;P1;durP2;ratioP2;P2;SDS_P1;SDS_P2;PMS_P1;PMS_P2;Temp;Humidity;BMP_temperature;BMP_pressure;BME280_temperature;BME280_humidity;BME280_pressure;Samples;Min_cycle;Max_cycle;Signal;HPM_P1;HPM_P2
2021/12/20 00:01:24;;;;;;;;;;;;;;;-3.27;61.62;95649.06;6397408;27;19992;-62
2021/12/20 00:04:30;;;;;;;;;;;;;;;-3.29;62.21;95661.13;6397432;27;20364;-63
2021/12/20 00:07:31;;;;;;;;;;;;;;;-3.02;60.95;95662.03;6397389;27;20372;-65
2021/12/20 00:10:35;;;;;;;;;;;;;;;-3.15;61.07;95648.69;6378153;27;19923;-63
2021/12/20 00:13:38;;;;;;;;;;;;;;;-3.50;62.05;95660.88;6397291;27;19923;-63
2021/12/20 00:16:41;;;;;;;;;;;;;;;-3.15;61.19;95653.81;6397478;27;19923;-62
2021/12/20 00:19:44;;;;;;;;;;;;;;;-3.17;61.33;95661.59;6397501;27;19965;-62
2021/12/20 00:22:45;;;;;;;;;;;;;;;-3.26;61.51;95664.44;6396024;27;20059;-63
2021/12/20 00:25:50;;;;;;;;;;;;;;;-3.54;62.27;95656.69;6397201;27;19923;-62
2021/12/20 00:28:51;;;;;;;;;;;;;;;-3.55;62.30;95651.63;6396069;27;19927;-62
2021/12/20 00:31:52;;;;;;;;;;;;;;;-3.33;62.12;95660.38;6396368;27;19923;-62
2021/12/20 00:34:53;;;;;;;;;;;;;;;-3.57;62.52;95650.81;6396097;27;20419;-62
2021/12/20 00:41:13;;;;;;;;;;;;;;;-3.50;61.63;95655.72;6397109;27;19930;-62
2021/12/20 00:44:17;;;;;;;;;;;;;;;-3.73;62.27;95656.41;6397241;27;19923;-62
2021/12/20 00:47:20;;;;;;;;;;;;;;;-3.83;62.78;95665.25;6396113;27;20289;-62
2021/12/20 00:50:22;;;;;;;;;;;;;;;-3.72;61.96;95664.94;6396999;27;19923;-62
2021/12/20 00:53:23;;;;;;;;;;;;;;;-3.61;61.21;95656.03;6397072;27;19923;-63
2021/12/20 00:56:24;;;;;;;;;;;;;;;-3.54;60.98;95656.69;6396760;27;19923;-63
2021/12/20 00:59:25;;;;;;;;;;;;;;;-3.58;60.38;95654.28;6395715;27;19987;-62
2021/12/20 01:02:26;;;;;;;;;;;;;;;-3.86;60.99;95660.19;6397589;27;20366;-63
2021/12/20 01:05:28;;;;;;;;;;;;;;;-3.88;61.03;95656.81;6400772;27;19926;-62
2021/12/20 01:08:34;;;;;;;;;;;;;;;-4.09;61.49;95671.94;6400515;27;19923;-62
2021/12/20 01:11:39;;;;;;;;;;;;;;;-4.14;61.68;95680.66;6400424;27;19930;-62
2021/12/20 01:14:41;;;;;;;;;;;;;;;-4.23;62.13;95686.88;6401271;27;19923;-63
2021/12/20 01:17:42;;;;;;;;;;;;;;;-4.11;61.66;95678.84;6401310;27;19923;-63
2021/12/20 01:20:43;;;;;;;;;;;;;;;-4.57;62.33;95682.59;6400703;27;19930;-63
2021/12/20 01:23:44;;;;;;;;;;;;;;;-4.60;63.18;95672.41;6400867;27;19923;-62
2021/12/20 01:26:48;;;;;;;;;;;;;;;-4.49;62.79;95669.56;6400943;27;20009;-62
2021/12/20 01:29:49;;;;;;;;;;;;;;;-4.78;63.70;95683.13;6400871;27;20380;-63
2021/12/20 01:32:55;;;;;;;;;;;;;;;-4.91;64.17;95686.84;6400827;27;19927;-63
2021/12/20 01:35:58;;;;;;;;;;;;;;;-4.89;64.41;95695.38;6399560;27;20200;-63
2021/12/20 01:38:59;;;;;;;;;;;;;;;-4.40;62.76;95696.75;6400707;27;19923;-63
2021/12/20 01:42:03;;;;;;;;;;;;;;;-4.38;62.50;95700.13;6399796;27;20496;-62
2021/12/20 01:45:05;;;;;;;;;;;;;;;-4.44;63.19;95713.13;6399568;27;19946;-62
2021/12/20 01:48:10;;;;;;;;;;;;;;;-4.36;62.71;95722.31;6399691;27;19923;-63
2021/12/20 01:51:28;;;;;;;;;;;;;;;-4.33;63.07;95718.78;6400240;27;19927;-62
2021/12/20 01:54:31;;;;;;;;;;;;;;;-4.55;63.51;95715.94;6400115;27;19923;-62
2021/12/20 01:57:37;;;;;;;;;;;;;;;-4.56;63.47;95709.97;6400204;27;20392;-62
2021/12/20 02:04:07;;;;;;;;;;;;;;;-4.71;64.21;95715.44;6400153;27;20291;-62
2021/12/20 02:07:30;;;;;;;;;;;;;;;-4.51;64.26;95718.38;6399797;27;19930;-62
2021/12/20 02:10:33;;;;;;;;;;;;;;;-4.66;64.68;95723.91;6399084;27;20142;-62
2021/12/20 02:13:36;;;;;;;;;;;;;;;-4.34;64.23;95740.22;6398533;27;19923;-62
2021/12/20 02:16:38;;;;;;;;;;;;;;;-4.60;64.62;95734.00;6398736;27;19923;-62
2021/12/20 02:19:39;;;;;;;;;;;;;;;-4.44;64.68;95733.66;6398877;27;19927;-62
2021/12/20 02:22:43;;;;;;;;;;;;;;;-4.51;64.61;95728.66;6399195;27;20485;-62
2021/12/20 02:25:44;;;;;;;;;;;;;;;-4.63;65.33;95739.22;6399477;27;20000;-63
2021/12/20 02:28:51;;;;;;;;;;;;;;;-4.62;65.64;95743.47;6399298;27;19923;-62
2021/12/20 02:38:37;;;;;;;;;;;;;;;-4.63;66.28;95744.34;6397997;27;19923;-63
2021/12/20 02:41:38;;;;;;;;;;;;;;;-4.52;65.97;95752.66;6398387;27;19923;-62
2021/12/20 02:44:45;;;;;;;;;;;;;;;-4.35;66.31;95753.97;6397862;27;20071;-63
2021/12/20 02:47:47;;;;;;;;;;;;;;;-4.53;66.30;95761.22;6398485;27;19923;-63
2021/12/20 02:50:53;;;;;;;;;;;;;;;-4.54;66.19;95762.09;6398088;27;19927;-63
2021/12/20 02:53:56;;;;;;;;;;;;;;;-4.64;66.42;95770.91;6398628;27;19927;-63
2021/12/20 02:56:57;;;;;;;;;;;;;;;-4.63;66.39;95772.59;6398738;27;19923;-63
2021/12/20 03:00:00;;;;;;;;;;;;;;;-4.52;66.22;95770.63;6397585;27;20334;-63
2021/12/20 03:03:04;;;;;;;;;;;;;;;-4.70;66.50;95778.72;6398445;27;19923;-63
2021/12/20 03:06:10;;;;;;;;;;;;;;;-4.64;66.35;95776.03;6397239;27;19930;-63
2021/12/20 03:09:14;;;;;;;;;;;;;;;-4.52;66.19;95775.75;6398097;27;19931;-62
2021/12/20 03:12:18;;;;;;;;;;;;;;;-4.40;65.55;95786.59;6397991;27;19923;-63
2021/12/20 03:15:24;;;;;;;;;;;;;;;-4.51;65.48;95790.25;6398225;27;20397;-63
2021/12/20 03:18:28;;;;;;;;;;;;;;;-4.56;66.10;95794.69;6397126;27;20435;-63
2021/12/20 03:21:31;;;;;;;;;;;;;;;-4.78;66.46;95788.34;6397789;27;19923;-64
2021/12/20 03:24:35;;;;;;;;;;;;;;;-4.85;67.16;95799.59;6397855;27;20320;-63
2021/12/20 03:27:38;;;;;;;;;;;;;;;-5.04;67.72;95789.75;6396205;27;19930;-63
2021/12/20 03:30:39;;;;;;;;;;;;;;;-5.14;68.39;95792.53;6397916;27;20384;-63
2021/12/20 03:33:43;;;;;;;;;;;;;;;-5.24;68.62;95786.75;6397632;27;19923;-63
2021/12/20 03:36:45;;;;;;;;;;;;;;;-5.26;68.67;95793.66;6397688;27;19923;-63
2021/12/20 03:39:50;;;;;;;;;;;;;;;-5.39;69.29;95803.28;6397406;27;20010;-62
2021/12/20 03:42:51;;;;;;;;;;;;;;;-5.40;69.53;95798.19;6397458;27;20007;-63
2021/12/20 03:45:57;;;;;;;;;;;;;;;-5.42;69.82;95804.19;6397596;27;19923;-62
2021/12/20 03:49:03;;;;;;;;;;;;;;;-5.45;69.94;95799.13;6397494;27;19923;-62
2021/12/20 03:52:04;;;;;;;;;;;;;;;-5.29;69.21;95798.84;6396761;27;20296;-63
2021/12/20 03:55:06;;;;;;;;;;;;;;;-5.33;69.83;95817.69;6397551;27;19930;-63
2021/12/20 03:58:07;;;;;;;;;;;;;;;-5.28;69.28;95827.00;6396589;27;19953;-63
2021/12/20 04:01:10;;;;;;;;;;;;;;;-5.24;68.91;95814.94;6377806;27;19922;-62
2021/12/20 04:04:15;;;;;;;;;;;;;;;-5.31;69.83;95821.09;6397007;27;19959;-62
2021/12/20 04:07:17;;;;;;;;;;;;;;;-5.34;69.31;95831.41;6396264;27;20021;-63
2021/12/20 04:10:18;;;;;;;;;;;;;;;-5.34;69.88;95841.66;6397192;27;20311;-63
2021/12/20 04:13:21;;;;;;;;;;;;;;;-5.21;69.76;95848.22;6396019;27;20334;-63
2021/12/20 04:16:25;;;;;;;;;;;;;;;-5.14;69.70;95844.69;6397443;27;19927;-63
2021/12/20 04:19:26;;;;;;;;;;;;;;;-5.26;70.51;95856.03;6396484;27;20003;-63
2021/12/20 04:22:30;;;;;;;;;;;;;;;-5.20;70.30;95871.28;6396839;27;19923;-62
2021/12/20 04:25:33;;;;;;;;;;;;;;;-5.19;70.89;95867.84;6396973;27;20291;-63
2021/12/20 04:28:37;;;;;;;;;;;;;;;-5.32;70.82;95852.72;6397112;27;19923;-63
2021/12/20 04:31:38;;;;;;;;;;;;;;;-5.16;71.45;95864.38;6396158;27;19930;-63
2021/12/20 04:34:47;;;;;;;;;;;;;;;-5.27;71.83;95874.00;6396445;27;20457;-63
2021/12/20 04:37:50;;;;;;;;;;;;;;;-5.07;71.15;95869.31;6399607;27;19923;-63
2021/12/20 04:40:53;;;;;;;;;;;;;;;-5.18;71.29;95863.53;6402084;27;20316;-63
2021/12/20 04:43:57;;;;;;;;;;;;;;;-5.12;71.31;95868.59;6401997;27;19927;-62
2021/12/20 04:46:58;;;;;;;;;;;;;;;-5.15;71.73;95873.78;6401016;27;19923;-62
2021/12/20 04:49:59;;;;;;;;;;;;;;;-5.00;70.65;95877.75;6401782;27;19976;-63
2021/12/20 04:53:00;;;;;;;;;;;;;;;-4.97;70.65;95878.53;6401571;27;19923;-63
2021/12/20 04:56:02;;;;;;;;;;;;;;;-5.05;70.10;95874.41;6400994;27;19934;-63
2021/12/20 04:59:05;;;;;;;;;;;;;;;-5.15;70.68;95883.16;6401266;27;19922;-63
2021/12/20 05:02:08;;;;;;;;;;;;;;;-5.18;70.71;95889.19;6401556;27;20392;-63
2021/12/20 05:05:10;;;;;;;;;;;;;;;-5.29;70.91;95898.84;6400817;27;19927;-62
2021/12/20 05:08:12;;;;;;;;;;;;;;;-5.21;70.46;95890.13;6400041;27;20017;-62
2021/12/20 05:11:17;;;;;;;;;;;;;;;-5.15;70.65;95878.91;6401047;27;19923;-63
2021/12/20 05:14:19;;;;;;;;;;;;;;;-5.13;69.98;95866.88;6401108;27;19930;-64
2021/12/20 05:17:20;;;;;;;;;;;;;;;-5.23;70.54;95865.38;6400362;27;20376;-63
2021/12/20 05:20:21;;;;;;;;;;;;;;;-5.16;70.80;95872.06;6400755;27;19930;-62
2021/12/20 05:23:25;;;;;;;;;;;;;;;-5.02;70.12;95889.75;6400655;27;19927;-63
2021/12/20 05:26:26;;;;;;;;;;;;;;;-4.92;69.08;95893.00;6399762;27;19923;-63
2021/12/20 05:29:31;;;;;;;;;;;;;;;-4.92;68.85;95910.94;6399442;27;19974;-62
2021/12/20 05:32:32;;;;;;;;;;;;;;;-4.85;68.51;95908.22;6400528;27;19929;-63
2021/12/20 05:35:36;;;;;;;;;;;;;;;-4.92;68.63;95916.94;6400808;27;19923;-62
2021/12/20 05:38:40;;;;;;;;;;;;;;;-5.01;68.53;95917.94;6399070;27;19922;-63
2021/12/20 05:41:43;;;;;;;;;;;;;;;-5.00;68.86;95905.97;6400332;27;20400;-64
2021/12/20 05:44:44;;;;;;;;;;;;;;;-4.88;68.94;95928.81;6400267;27;20071;-63
2021/12/20 05:47:46;;;;;;;;;;;;;;;-4.87;68.40;95919.38;6400062;27;20416;-63
2021/12/20 05:50:47;;;;;;;;;;;;;;;-4.85;68.46;95921.03;6398243;27;19935;-62
2021/12/20 05:53:50;;;;;;;;;;;;;;;-4.84;68.28;95920.19;6399901;27;19923;-63
2021/12/20 05:56:52;;;;;;;;;;;;;;;-4.83;68.43;95931.28;6398984;27;19962;-63
2021/12/20 05:59:53;;;;;;;;;;;;;;;-4.80;68.67;95923.53;6400010;27;19923;-63
2021/12/20 06:02:56;;;;;;;;;;;;;;;-4.83;69.12;95932.13;6398957;27;19923;-62
2021/12/20 06:05:57;;;;;;;;;;;;;;;-4.68;69.29;95936.09;6399993;27;20050;-63
2021/12/20 06:09:00;;;;;;;;;;;;;;;-4.69;69.41;95939.56;6399310;27;20006;-64
2021/12/20 06:12:04;;;;;;;;;;;;;;;-4.57;69.76;95934.16;6399936;27;19926;-63
2021/12/20 06:15:06;;;;;;;;;;;;;;;-4.43;69.54;95922.78;6398826;27;19929;-63
2021/12/20 06:18:10;;;;;;;;;;;;;;;-4.25;69.19;95918.94;6398738;27;20367;-64
2021/12/20 06:21:12;;;;;;;;;;;;;;;-4.22;69.62;95924.00;6398726;27;19930;-63
2021/12/20 06:24:13;;;;;;;;;;;;;;;-4.09;69.61;95922.88;6398670;27;20015;-63
2021/12/20 06:27:17;;;;;;;;;;;;;;;-3.91;68.77;95924.16;6399413;27;19923;-64
2021/12/20 06:30:20;;;;;;;;;;;;;;;-3.88;68.51;95917.25;6399296;27;20025;-63
2021/12/20 06:33:21;;;;;;;;;;;;;;;-3.74;68.50;95914.31;6397819;27;19953;-63
2021/12/20 06:36:30;;;;;;;;;;;;;;;-3.68;68.33;95908.19;6398666;27;19923;-63
2021/12/20 06:39:33;;;;;;;;;;;;;;;-3.78;68.63;95917.03;6397925;27;20300;-63
2021/12/20 06:42:37;;;;;;;;;;;;;;;-3.83;69.34;95906.84;6399382;27;20303;-62
2021/12/20 06:45:41;;;;;;;;;;;;;;;-3.84;69.61;95910.28;6398980;27;20404;-63
2021/12/20 06:48:42;;;;;;;;;;;;;;;-3.85;69.65;95903.44;6398267;27;19927;-63
2021/12/20 06:51:43;;;;;;;;;;;;;;;-3.71;70.02;95901.41;6397427;27;20293;-63
2021/12/20 06:54:48;;;;;;;;;;;;;;;-3.61;69.50;95902.88;6398359;27;20046;-63
2021/12/20 06:57:52;;;;;;;;;;;;;;;-3.36;69.22;95901.41;6398668;27;19923;-63
2021/12/20 07:00:53;;;;;;;;;;;;;;;-3.22;68.99;95889.88;6397139;27;19930;-63
2021/12/20 07:03:55;;;;;;;;;;;;;;;-3.34;69.28;95890.19;6397551;27;19991;-63
2021/12/20 07:06:59;;;;;;;;;;;;;;;-3.18;68.86;95885.47;6398305;27;19923;-62
2021/12/20 07:10:00;;;;;;;;;;;;;;;-3.12;68.69;95887.88;6396866;27;19984;-62
2021/12/20 07:13:01;;;;;;;;;;;;;;;-2.96;69.10;95885.75;6397548;27;19968;-62
2021/12/20 07:16:03;;;;;;;;;;;;;;;-2.95;69.15;95892.56;6397364;27;19923;-63
2021/12/20 07:19:07;;;;;;;;;;;;;;;-2.84;70.04;95903.41;6397493;27;19923;-63
2021/12/20 07:22:08;;;;;;;;;;;;;;;-2.47;68.80;95898.94;6396985;27;20406;-63
2021/12/20 07:25:09;;;;;;;;;;;;;;;-2.31;68.29;95906.19;6396574;27;20018;-63
2021/12/20 07:28:10;;;;;;;;;;;;;;;-2.30;67.69;95907.84;6396735;27;20256;-62
2021/12/20 07:31:12;;;;;;;;;;;;;;;-2.39;68.00;95913.28;6396710;27;19923;-62
2021/12/20 07:34:13;;;;;;;;;;;;;;;-2.38;67.87;95922.69;6396544;27;19923;-63
2021/12/20 07:37:15;;;;;;;;;;;;;;;-2.49;68.62;95914.47;6396446;27;19923;-63
2021/12/20 07:40:16;;;;;;;;;;;;;;;-2.53;68.79;95926.56;6396974;27;19931;-63
2021/12/20 07:43:17;;;;;;;;;;;;;;;-2.47;68.40;95930.69;6396902;27;20335;-63
2021/12/20 07:46:19;;;;;;;;;;;;;;;-2.62;68.93;95936.28;6396662;27;19930;-63
2021/12/20 07:49:20;;;;;;;;;;;;;;;-2.66;69.32;95929.53;6396218;27;20307;-63
2021/12/20 07:52:21;;;;;;;;;;;;;;;-2.58;69.49;95935.31;6396166;27;20034;-63
2021/12/20 07:55:22;;;;;;;;;;;;;;;-2.59;69.46;95928.47;6396776;27;19927;-63
2021/12/20 07:58:23;;;;;;;;;;;;;;;-2.58;69.46;95927.59;6397014;27;19930;-62
2021/12/20 08:01:26;;;;;;;;;;;;;;;-2.45;69.30;95917.78;6396678;27;20030;-62
2021/12/20 08:04:29;;;;;;;;;;;;;;;-2.59;69.82;95921.59;6396665;27;19930;-63
2021/12/20 08:07:30;;;;;;;;;;;;;;;-2.66;70.46;95924.38;6396361;27;19923;-62
2021/12/20 08:10:34;;;;;;;;;;;;;;;-2.68;71.04;95928.75;6395736;27;20023;-63
2021/12/20 08:13:44;;;;;;;;;;;;;;;-2.67;71.10;95913.25;6400382;27;19929;-62
2021/12/20 08:16:47;;;;;;;;;;;;;;;-2.50;70.46;95920.47;6402116;27;19927;-64
2021/12/20 08:19:50;;;;;;;;;;;;;;;-2.60;71.39;95917.34;6402293;27;20311;-64
2021/12/20 08:22:51;;;;;;;;;;;;;;;-2.28;70.45;95944.75;6401408;27;19923;-64
2021/12/20 08:25:55;;;;;;;;;;;;;;;-2.37;69.88;95937.28;6402191;27;20391;-64
2021/12/20 08:28:59;;;;;;;;;;;;;;;-2.44;70.58;95934.91;6401011;27;19923;-64
2021/12/20 08:32:02;;;;;;;;;;;;;;;-2.38;70.42;95939.88;6402099;27;19923;-62
2021/12/20 08:35:06;;;;;;;;;;;;;;;-2.36;70.16;95938.97;6401094;27;19923;-62
2021/12/20 08:38:10;;;;;;;;;;;;;;;-2.32;69.96;95940.56;6401071;27;20025;-63
2021/12/20 08:41:11;;;;;;;;;;;;;;;-2.34;70.23;95947.50;6401370;27;19945;-62
2021/12/20 08:44:12;;;;;;;;;;;;;;;-2.31;70.04;95952.56;6401213;27;19930;-62
2021/12/20 08:47:14;;;;;;;;;;;;;;;-2.32;70.19;95940.56;6401099;27;19975;-63
2021/12/20 08:50:16;;;;;;;;;;;;;;;-2.31;70.27;95937.09;6400843;27;19923;-63
2021/12/20 08:53:17;;;;;;;;;;;;;;;-2.33;70.39;95933.72;6401201;27;20343;-62
2021/12/20 08:56:21;;;;;;;;;;;;;;;-2.16;70.07;95929.81;6401572;27;19923;-63
2021/12/20 08:59:25;;;;;;;;;;;;;;;-2.17;69.48;95912.66;6401562;27;19927;-62
2021/12/20 09:02:26;;;;;;;;;;;;;;;-2.26;69.30;95930.09;6401231;27;19930;-63
2021/12/20 09:05:31;;;;;;;;;;;;;;;-2.20;69.35;95917.91;6401360;27;19923;-62
2021/12/20 09:08:34;;;;;;;;;;;;;;;-2.22;69.73;95920.53;6400652;27;20541;-63
2021/12/20 09:11:35;;;;;;;;;;;;;;;-2.39;70.05;95900.41;6399929;27;20472;-64
2021/12/20 09:14:37;;;;;;;;;;;;;;;-2.40;70.34;95896.16;6399910;27;19923;-63
2021/12/20 09:17:38;;;;;;;;;;;;;;;-2.28;68.47;95902.66;6400110;27;19927;-64
2021/12/20 09:20:39;;;;;;;;;;;;;;;-2.16;63.53;95909.19;6399387;27;19942;-62
2021/12/20 09:23:40;;;;;;;;;;;;;;;-2.05;61.86;95896.81;6399880;27;19923;-63
2021/12/20 09:26:41;;;;;;;;;;;;;;;-2.07;63.28;95911.47;6399965;27;19945;-63
2021/12/20 09:29:42;;;;;;;;;;;;;;;-2.00;63.51;95915.56;6399948;27;19923;-62
2021/12/20 09:32:43;;;;;;;;;;;;;;;-1.91;63.82;95910.13;6400025;27;19923;-63
2021/12/20 09:35:47;;;;;;;;;;;;;;;-2.07;63.80;95904.63;6400377;27;19923;-64
2021/12/20 09:38:48;;;;;;;;;;;;;;;-2.00;64.83;95905.25;6400084;27;19923;-63
2021/12/20 09:44:53;;;;;;;;;;;;;;;-2.09;64.60;95915.84;6400571;27;20031;-66
2021/12/20 09:47:54;;;;;;;;;;;;;;;-2.15;64.54;95906.56;6399105;27;19923;-64
2021/12/20 09:50:57;;;;;;;;;;;;;;;-2.09;63.81;95905.53;6400541;27;19927;-63
2021/12/20 09:53:59;;;;;;;;;;;;;;;-2.16;63.89;95897.13;6399904;27;20316;-63
2021/12/20 09:57:02;;;;;;;;;;;;;;;-2.19;64.21;95893.81;6400015;27;19926;-64
2021/12/20 10:00:05;;;;;;;;;;;;;;;-2.22;63.94;95906.78;6399147;27;19923;-62
2021/12/20 10:03:06;;;;;;;;;;;;;;;-2.14;64.27;95922.88;6399255;27;19923;-63
2021/12/20 10:06:10;;;;;;;;;;;;;;;-2.19;65.16;95922.16;6399940;27;20013;-64
2021/12/20 10:09:14;;;;;;;;;;;;;;;-2.27;65.41;95918.06;6399267;27;19923;-62
2021/12/20 10:12:24;;;;;;;;;;;;;;;-2.19;64.44;95919.59;6398868;27;20014;-63
2021/12/20 10:15:37;;;;;;;;;;;;;;;-2.28;63.43;95931.84;6399865;27;19956;-63
2021/12/20 10:18:38;;;;;;;;;;;;;;;-2.32;63.19;95932.84;6398971;27;19923;-63
2021/12/20 10:21:41;;;;;;;;;;;;;;;-2.29;62.01;95925.03;6398198;27;20031;-63
2021/12/20 10:24:42;;;;;;;;;;;;;;;-2.42;63.10;95926.25;6398673;27;19927;-63
2021/12/20 10:27:45;;;;;;;;;;;;;;;-2.37;63.28;95921.00;6398273;27;19983;-63
2021/12/20 10:30:47;;;;;;;;;;;;;;;-2.19;63.10;95917.00;6398738;27;20030;-63
2021/12/20 10:33:52;;;;;;;;;;;;;;;-2.22;63.22;95919.69;6398578;27;20315;-62
2021/12/20 10:36:56;;;;;;;;;;;;;;;-2.29;63.88;95916.47;6397645;27;19945;-62
2021/12/20 10:40:01;;;;;;;;;;;;;;;-2.36;64.21;95910.63;6397891;27;20487;-63
2021/12/20 10:43:05;;;;;;;;;;;;;;;-2.39;65.08;95923.59;6398355;27;19930;-62
2021/12/20 10:46:13;;;;;;;;;;;;;;;-2.71;65.59;95929.69;6398523;27;19923;-62
2021/12/20 10:49:15;;;;;;;;;;;;;;;-2.76;66.76;95923.81;6398740;27;19930;-63
2021/12/20 10:52:25;;;;;;;;;;;;;;;-2.67;66.39;95912.41;6397230;27;20432;-64
2021/12/20 10:55:36;;;;;;;;;;;;;;;-2.72;66.63;95935.69;6397329;27;19923;-63
2021/12/20 10:58:38;;;;;;;;;;;;;;;-2.90;67.03;95937.06;6397572;27;19945;-63
2021/12/20 11:04:57;;;;;;;;;;;;;;;-2.88;67.86;95919.84;6397313;27;20341;-63
2021/12/20 11:11:42;;;;;;;;;;;;;;;-3.21;68.87;95917.28;6397707;27;20281;-63
2021/12/20 11:14:44;;;;;;;;;;;;;;;-3.12;68.47;95923.06;6397480;27;19988;-63
2021/12/20 11:17:46;;;;;;;;;;;;;;;-3.30;69.09;95909.81;6397513;27;19964;-63
2021/12/20 11:20:47;;;;;;;;;;;;;;;-3.24;69.31;95907.06;6397289;27;19929;-63
2021/12/20 11:23:50;;;;;;;;;;;;;;;-3.08;69.29;95901.53;6397170;27;19923;-62
2021/12/20 11:26:52;;;;;;;;;;;;;;;-3.06;69.11;95925.47;6397237;27;19927;-63
2021/12/20 11:29:55;;;;;;;;;;;;;;;-3.21;69.35;95917.28;6396968;27;19943;-63
2021/12/20 11:32:56;;;;;;;;;;;;;;;-3.20;69.92;95929.28;6396924;27;20268;-64
2021/12/20 11:35:59;;;;;;;;;;;;;;;-3.23;70.22;95928.47;6397418;27;20301;-63
2021/12/20 11:39:07;;;;;;;;;;;;;;;-3.25;69.81;95925.97;6397696;27;19923;-64
2021/12/20 11:42:08;;;;;;;;;;;;;;;-3.27;70.22;95922.59;6396974;27;19923;-65
2021/12/20 11:45:10;;;;;;;;;;;;;;;-3.46;71.02;95916.22;6396797;27;20419;-63
2021/12/20 11:48:15;;;;;;;;;;;;;;;-3.48;71.52;95911.13;6397026;27;20273;-62
2021/12/20 11:51:16;;;;;;;;;;;;;;;-3.48;71.53;95912.81;6395943;27;19923;-65
2021/12/20 11:54:49;;;;;;;;;;;;;;;-3.52;71.61;95921.53;6396823;27;19923;-65
2021/12/20 11:57:57;;;;;;;;;;;;;;;-3.53;71.50;95917.28;6340568;27;19930;-64
2021/12/20 12:01:03;;;;;;;;;;;;;;;-3.58;72.02;95921.69;6397291;27;19923;-64
2021/12/20 12:04:04;;;;;;;;;;;;;;;-3.63;72.32;95929.50;6395690;27;19988;-64
2021/12/20 12:07:22;;;;;;;;;;;;;;;-3.57;71.83;95908.75;6396800;27;19923;-66
2021/12/20 12:10:28;;;;;;;;;;;;;;;-3.61;72.16;95912.31;6397090;27;19923;-64
2021/12/20 12:14:01;;;;;;;;;;;;;;;-3.63;72.11;95901.22;6362657;27;20400;-64
2021/12/20 12:17:08;;;;;;;;;;;;;;;-3.63;72.39;95916.63;6385494;27;19958;-64
2021/12/20 12:20:11;;;;;;;;;;;;;;;-3.77;72.71;95909.25;6396237;27;19929;-62
2021/12/20 12:23:12;;;;;;;;;;;;;;;-3.77;73.16;95919.53;6396151;27;19933;-65
2021/12/20 12:26:27;;;;;;;;;;;;;;;-3.58;72.36;95921.69;6395964;27;20013;-63
2021/12/20 12:29:28;;;;;;;;;;;;;;;-3.64;72.72;95918.38;6396973;27;19930;-64
2021/12/20 12:32:32;;;;;;;;;;;;;;;-3.75;72.53;95922.94;6396259;27;19923;-64
2021/12/20 12:35:50;;;;;;;;;;;;;;;-3.57;72.40;95923.34;6395412;27;20424;-63
2021/12/20 12:38:55;;;;;;;;;;;;;;;-3.79;72.64;95936.75;6396061;27;19923;-63
2021/12/20 12:42:00;;;;;;;;;;;;;;;-3.71;72.96;95942.56;6395833;27;19922;-63
2021/12/20 12:45:01;;;;;;;;;;;;;;;-3.71;72.30;95942.56;6396089;27;19930;-63
2021/12/20 12:48:25;;;;;;;;;;;;;;;-3.71;72.63;95931.41;6396652;27;19922;-63
2021/12/20 12:51:26;;;;;;;;;;;;;;;-3.81;72.89;95928.22;6395724;27;19923;-63
2021/12/20 12:54:39;;;;;;;;;;;;;;;-3.79;72.88;95941.88;6395305;27;19923;-63
2021/12/20 12:57:42;;;;;;;;;;;;;;;-3.77;72.59;95932.38;6396864;27;19923;-63
2021/12/20 13:00:55;;;;;;;;;;;;;;;-3.85;72.78;95937.72;6401679;27;19979;-63
2021/12/20 13:03:56;;;;;;;;;;;;;;;-3.85;72.87;95940.31;6400537;27;20022;-63
2021/12/20 13:06:57;;;;;;;;;;;;;;;-3.90;73.10;95931.00;6400404;27;19930;-63
2021/12/20 13:10:28;;;;;;;;;;;;;;;-3.86;73.32;95942.91;6401402;27;20334;-64
2021/12/20 13:13:32;;;;;;;;;;;;;;;-3.74;72.89;95945.16;6400889;27;19938;-65
2021/12/20 13:16:35;;;;;;;;;;;;;;;-3.97;73.49;95945.69;6401183;27;19930;-63
2021/12/20 13:19:37;;;;;;;;;;;;;;;-4.00;73.87;95944.94;6399889;27;20017;-63
2021/12/20 13:22:51;;;;;;;;;;;;;;;-3.80;73.73;95959.91;6401001;27;19923;-63
2021/12/20 13:26:05;;;;;;;;;;;;;;;-3.86;73.23;95942.91;6400900;27;19923;-63
2021/12/20 13:29:15;;;;;;;;;;;;;;;-3.95;73.58;95943.94;6400000;27;19930;-64
2021/12/20 13:32:16;;;;;;;;;;;;;;;-3.92;73.79;95948.19;6382127;27;19945;-64
2021/12/20 13:35:18;;;;;;;;;;;;;;;-4.04;73.84;95953.59;6399690;27;20304;-64
2021/12/20 13:38:24;;;;;;;;;;;;;;;-4.10;74.31;95960.56;6399453;27;19923;-64
2021/12/20 13:41:26;;;;;;;;;;;;;;;-4.11;74.29;95964.00;6400354;27;19919;-63
2021/12/20 13:44:29;;;;;;;;;;;;;;;-3.92;73.81;95959.28;6399768;27;19945;-64
2021/12/20 13:47:31;;;;;;;;;;;;;;;-4.10;74.25;95954.59;6399944;27;19930;-64
2021/12/20 13:50:32;;;;;;;;;;;;;;;-4.04;74.01;95945.91;6400337;27;19977;-65
2021/12/20 13:53:35;;;;;;;;;;;;;;;-4.02;74.40;95938.97;6400152;27;19930;-63
2021/12/20 13:56:40;;;;;;;;;;;;;;;-3.96;74.38;95964.53;6400247;27;19923;-64
2021/12/20 13:59:49;;;;;;;;;;;;;;;-3.95;74.11;95955.97;6400069;27;19919;-62
2021/12/20 14:02:52;;;;;;;;;;;;;;;-3.95;73.70;95932.84;6399035;27;20307;-64
2021/12/20 14:05:53;;;;;;;;;;;;;;;-3.97;73.72;95952.56;6381259;27;19941;-64
2021/12/20 14:09:04;;;;;;;;;;;;;;;-4.02;73.97;95962.94;6399429;27;19923;-63
2021/12/20 14:12:15;;;;;;;;;;;;;;;-4.11;74.56;95946.00;6399666;27;19919;-64
2021/12/20 14:15:18;;;;;;;;;;;;;;;-4.16;74.53;95945.28;6398630;27;19930;-63
2021/12/20 14:18:26;;;;;;;;;;;;;;;-4.23;74.61;95941.16;6399365;27;20397;-64
2021/12/20 14:21:27;;;;;;;;;;;;;;;-4.24;74.67;95947.19;6397473;27;19971;-64
2021/12/20 14:24:40;;;;;;;;;;;;;;;-4.30;74.59;95943.03;6399463;27;19933;-64
2021/12/20 14:27:58;;;;;;;;;;;;;;;-4.46;75.62;95935.69;6399282;27;20022;-65
2021/12/20 14:31:07;;;;;;;;;;;;;;;-4.33;75.39;95947.34;6398324;27;20418;-63
2021/12/20 14:34:10;;;;;;;;;;;;;;;-4.39;75.47;95945.75;6399039;27;19930;-63
2021/12/20 14:37:12;;;;;;;;;;;;;;;-4.45;75.47;95945.06;6399312;27;20122;-62
2021/12/20 14:40:33;;;;;;;;;;;;;;;-4.31;75.47;95948.19;6399183;27;19972;-64
2021/12/20 14:43:34;;;;;;;;;;;;;;;-4.55;75.88;95941.84;6398580;27;19950;-63
2021/12/20 14:46:52;;;;;;;;;;;;;;;-4.39;75.86;95957.75;6398862;27;19945;-63
2021/12/20 14:50:05;;;;;;;;;;;;;;;-4.40;75.47;95961.22;6398070;27;19923;-66
2021/12/20 14:53:23;;;;;;;;;;;;;;;-4.46;75.98;95949.34;6398885;27;19927;-64
2021/12/20 14:56:29;;;;;;;;;;;;;;;-4.52;75.77;95958.03;6397981;27;19932;-64
2021/12/20 14:59:33;;;;;;;;;;;;;;;-4.58;76.09;95963.28;6397365;27;20335;-64
2021/12/20 15:02:42;;;;;;;;;;;;;;;-4.43;76.03;95976.69;6397144;27;19935;-63
2021/12/20 15:05:45;;;;;;;;;;;;;;;-4.45;76.07;95979.28;6397251;27;19923;-64
2021/12/20 15:08:46;;;;;;;;;;;;;;;-4.57;76.05;95974.41;6398240;27;19937;-63
2021/12/20 15:11:47;;;;;;;;;;;;;;;-4.60;76.55;95970.16;6398234;27;20281;-64
2021/12/20 15:14:52;;;;;;;;;;;;;;;-4.53;76.57;95974.31;6398420;27;19930;-63
2021/12/20 15:17:53;;;;;;;;;;;;;;;-4.44;76.31;95987.84;6398303;27;19982;-64
2021/12/20 15:20:54;;;;;;;;;;;;;;;-4.56;76.58;95976.94;6397848;27;19919;-62
2021/12/20 15:23:55;;;;;;;;;;;;;;;-4.53;76.38;95992.28;6398281;27;19923;-64
2021/12/20 15:26:59;;;;;;;;;;;;;;;-4.41;76.55;95985.22;6398029;27;19983;-63
2021/12/20 15:30:03;;;;;;;;;;;;;;;-4.34;76.62;95991.91;6397879;27;19972;-63
2021/12/20 15:33:07;;;;;;;;;;;;;;;-4.37;76.52;95986.84;6378915;27;20059;-63
2021/12/20 15:36:10;;;;;;;;;;;;;;;-4.41;77.01;95985.22;6396997;27;19923;-63
2021/12/20 15:39:11;;;;;;;;;;;;;;;-4.35;77.29;95992.78;6397160;27;20323;-64
2021/12/20 15:42:18;;;;;;;;;;;;;;;-4.26;77.33;96000.28;6396339;27;19923;-63
2021/12/20 15:45:19;;;;;;;;;;;;;;;-4.34;77.11;96013.28;6397052;27;20342;-64
2021/12/20 15:48:22;;;;;;;;;;;;;;;-4.34;77.43;95979.06;6397191;27;19923;-64
2021/12/20 15:51:25;;;;;;;;;;;;;;;-4.44;77.73;95986.13;6397574;27;19934;-64
2021/12/20 15:54:29;;;;;;;;;;;;;;;-4.43;77.80;95984.41;6397101;27;19923;-63
2021/12/20 15:57:34;;;;;;;;;;;;;;;-4.39;77.48;95998.84;6397116;27;19926;-64
2021/12/20 16:00:38;;;;;;;;;;;;;;;-4.36;77.95;95991.94;6397541;27;19923;-64
2021/12/20 16:03:39;;;;;;;;;;;;;;;-4.36;77.49;95993.66;6397268;27;19945;-66
2021/12/20 16:06:42;;;;;;;;;;;;;;;-4.31;77.72;95990.09;6397521;27;20018;-63
2021/12/20 16:09:46;;;;;;;;;;;;;;;-4.28;77.47;96008.03;6397356;27;19930;-67
2021/12/20 16:12:48;;;;;;;;;;;;;;;-4.25;77.38;95990.88;6396758;27;19930;-64
2021/12/20 16:15:53;;;;;;;;;;;;;;;-4.27;77.30;95998.63;6397140;27;20402;-65
2021/12/20 16:18:56;;;;;;;;;;;;;;;-4.16;77.74;96004.38;6397374;27;19923;-63
2021/12/20 16:22:04;;;;;;;;;;;;;;;-4.08;77.30;96035.91;6397074;27;19924;-64